Time;durP1;ratioP1;P1;durP2;ratioP2;P2;SDS_P1;SDS_P2;PMS_P1;PMS_P2;Temp;Humidity;BMP_temperature;BMP_pressure;BME280_temperature;BME280_humidity;BME280_pressure;Samples;Min_cycle;Max_cycle;Signal;HPM_P1;HPM_P2
2021/03/13 00:03:28;;;;;;;10.50;5.62;;;;;;;6.96;64.48;99102.17;2735845;86;21610;-63
2021/03/13 00:07:31;;;;;;;10.28;5.33;;;;;;;6.97;64.63;99098.56;2674679;88;21200;-64
2021/03/13 00:11:33;;;;;;;6.33;4.45;;;;;;;6.98;64.74;99096.77;2718268;87;21647;-63
2021/03/13 00:15:39;;;;;;;12.60;7.87;;;;;;;6.97;64.89;99090.62;2672554;89;21512;-62
2021/03/13 00:19:44;;;;;;;8.75;3.98;;;;;;;6.94;65.06;99081.64;2672956;88;21177;-63
2021/03/13 00:23:47;;;;;;;8.25;5.67;;;;;;;6.97;65.23;99085.81;2672339;89;21626;-63
2021/03/13 00:27:51;;;;;;;26.48;4.45;;;;;;;6.93;65.43;99072.05;2672547;88;21153;-63
2021/03/13 00:31:54;;;;;;;8.65;5.30;;;;;;;6.90;65.54;99070.98;2672482;88;21189;-64
2021/03/13 00:35:58;;;;;;;6.78;4.12;;;;;;;6.84;65.77;99067.53;2731261;86;21201;-63
2021/03/13 00:40:02;;;;;;;7.15;4.37;;;;;;;6.81;66.12;99065.16;2780605;85;21145;-64
2021/03/13 00:44:06;;;;;;;6.08;3.12;;;;;;;6.80;66.42;99063.48;2780869;85;21182;-63
2021/03/13 00:48:10;;;;;;;7.78;3.92;;;;;;;6.82;66.48;99060.22;2780427;85;21150;-63
2021/03/13 00:52:15;;;;;;;4.97;3.00;;;;;;;6.86;66.58;99051.05;2781072;85;21283;-62
2021/03/13 00:56:18;;;;;;;5.10;2.90;;;;;;;6.94;66.23;99051.71;2780672;85;21194;-64
2021/03/13 01:00:25;;;;;;;10.75;6.12;;;;;;;7.02;66.03;99050.58;2780674;85;21271;-62
2021/03/13 01:04:28;;;;;;;;;;;;;;;7.04;66.05;99044.67;2781237;83;21170;-63
2021/03/13 01:08:31;;;;;;;15.68;7.53;;;;;;;7.01;66.02;99046.27;2777461;85;20179;-63
2021/03/13 01:12:34;;;;;;;17.12;7.15;;;;;;;6.96;66.39;99044.01;2777225;85;21185;-64
2021/03/13 01:16:38;;;;;;;10.60;4.55;;;;;;;6.92;66.87;99036.00;2779834;84;21194;-63
2021/03/13 01:20:43;;;;;;;17.27;7.87;;;;;;;6.90;67.08;99028.69;2809956;84;21145;-63
2021/03/13 01:24:46;;;;;;;15.50;6.28;;;;;;;6.91;67.24;99019.79;2810328;84;21161;-65
2021/03/13 01:28:50;;;;;;;13.68;5.92;;;;;;;6.94;67.34;99016.88;2810209;84;22232;-64
2021/03/13 01:32:53;;;;;;;16.62;5.58;;;;;;;7.05;67.13;99017.73;2810190;84;21195;-63
2021/03/13 01:36:57;;;;;;;12.68;5.25;;;;;;;7.14;66.99;99011.14;2810263;84;21172;-63
2021/03/13 01:41:01;;;;;;;17.35;5.83;;;;;;;7.24;66.59;99011.17;2810296;84;21189;-64
2021/03/13 01:45:06;;;;;;;12.15;5.22;;;;;;;7.31;66.55;99002.71;2810263;84;21168;-63
2021/03/13 01:49:20;;;;;;;4.25;2.95;;;;;;;7.37;66.48;99003.00;2810177;84;21225;-64
2021/03/13 01:53:23;;;;;;;7.35;3.35;;;;;;;7.38;66.57;98997.21;2808908;84;21138;-62
2021/03/13 01:57:27;;;;;;;9.10;3.42;;;;;;;7.41;66.58;98995.61;2810442;84;21591;-65
2021/03/13 02:01:30;;;;;;;4.35;2.05;;;;;;;7.44;66.40;99005.91;2809884;84;21173;-63
2021/03/13 02:05:40;;;;;;;6.20;3.70;;;;;;;7.45;66.81;99001.47;2810188;84;21366;-63
2021/03/13 02:10:05;;;;;;;4.90;2.77;;;;;;;7.45;67.00;99007.59;2809848;84;21847;-62
2021/03/13 02:14:30;;;;;;;5.85;3.27;;;;;;;7.52;67.14;99003.44;2779643;84;21169;-63
2021/03/13 02:19:02;;;;;;;5.78;2.83;;;;;;;7.58;67.10;99010.81;2787031;85;21202;-64
2021/03/13 02:23:08;;;;;;;6.12;1.92;;;;;;;7.67;67.28;99016.27;2787528;85;21172;-65
2021/03/13 02:31:47;;;;;;;2.62;1.82;;;;;;;7.91;67.72;99017.66;2760685;85;20196;-64
2021/03/13 02:35:58;;;;;;;3.75;1.87;;;;;;;8.10;67.41;99030.04;2801395;85;21165;-66
2021/03/13 02:40:06;;;;;;;4.17;1.90;;;;;;;8.21;66.93;99030.38;2801214;85;21596;-63
2021/03/13 02:44:13;;;;;;;4.20;2.20;;;;;;;8.31;67.77;99032.53;2801426;85;21203;-62
2021/03/13 02:48:18;;;;;;;4.65;2.22;;;;;;;8.44;69.37;99037.53;2799660;83;21146;-65
2021/03/13 02:52:22;;;;;;;2.33;2.12;;;;;;;8.46;70.47;99043.52;2798850;84;21179;-64
2021/03/13 02:56:26;;;;;;;5.25;2.50;;;;;;;8.49;70.68;99042.41;2798572;85;21179;-64
2021/03/13 03:00:34;;;;;;;4.25;2.52;;;;;;;8.48;70.99;99051.34;2798669;85;21183;-65
2021/03/13 03:04:40;;;;;;;3.15;2.83;;;;;;;8.42;71.27;99051.41;2798558;84;21191;-64
2021/03/13 03:08:45;;;;;;;3.75;2.27;;;;;;;8.42;71.52;99042.14;2799193;84;21135;-63
2021/03/13 03:12:49;;;;;;;2.62;2.02;;;;;;;8.42;71.51;99059.36;2798991;85;21111;-65
2021/03/13 03:16:57;;;;;;;2.10;1.85;;;;;;;8.39;71.85;99059.14;2798867;84;21195;-64
2021/03/13 03:21:02;;;;;;;4.83;2.77;;;;;;;8.38;72.57;99069.40;2798878;85;21632;-63
2021/03/13 03:25:08;;;;;;;7.33;2.37;;;;;;;8.41;73.01;99074.41;2799187;84;21182;-64
2021/03/13 03:29:11;;;;;;;2.70;2.50;;;;;;;8.38;73.37;99069.91;2803358;84;21725;-64
2021/03/13 03:33:14;;;;;;;2.87;2.50;;;;;;;8.31;73.48;99066.98;2811585;84;21190;-63
2021/03/13 03:37:17;;;;;;;6.83;3.45;;;;;;;8.19;73.33;99070.74;2811766;84;21170;-64
2021/03/13 03:41:21;;;;;;;3.70;2.62;;;;;;;8.02;73.33;99057.22;2811823;84;21198;-63
2021/03/13 03:45:26;;;;;;;6.10;3.20;;;;;;;7.89;73.57;99053.53;2812015;84;21178;-64
2021/03/13 03:49:30;;;;;;;4.45;2.77;;;;;;;7.75;73.79;99054.78;2811961;84;21197;-64
2021/03/13 03:53:37;;;;;;;3.40;2.37;;;;;;;7.64;74.25;99050.92;2811746;84;21182;-63
2021/03/13 03:57:42;;;;;;;3.33;2.70;;;;;;;7.53;74.11;99049.23;2811685;84;21163;-64
2021/03/13 04:01:49;;;;;;;3.72;2.20;;;;;;;7.48;74.05;99054.11;2790232;84;22226;-63
2021/03/13 04:05:54;;;;;;;2.90;1.62;;;;;;;7.46;73.94;99052.91;2812523;84;21196;-63
2021/03/13 04:10:01;;;;;;;3.85;2.02;;;;;;;7.44;73.92;99052.22;2812674;84;21132;-65
2021/03/13 04:14:06;;;;;;;3.52;2.17;;;;;;;7.38;73.70;99047.48;2812770;84;21168;-62
2021/03/13 04:18:10;;;;;;;3.58;2.72;;;;;;;7.34;73.54;99038.14;2813134;84;21184;-62
2021/03/13 04:22:14;;;;;;;6.05;2.15;;;;;;;7.21;73.70;99041.86;2812727;84;21172;-62
2021/03/13 04:26:21;;;;;;;3.58;3.27;;;;;;;7.14;74.01;99035.45;2812664;84;22214;-63
2021/03/13 04:30:25;;;;;;;4.12;2.72;;;;;;;7.08;74.13;99041.28;2814044;84;21172;-63
2021/03/13 04:34:31;;;;;;;3.85;2.45;;;;;;;6.99;74.12;99037.12;2811228;84;21643;-61
2021/03/13 04:38:35;;;;;;;3.72;2.10;;;;;;;6.96;74.11;99035.23;2815288;84;21164;-63
2021/03/13 04:46:57;;;;;;;4.58;1.98;;;;;;;6.80;74.22;99037.05;2730052;86;21168;-62
2021/03/13 04:51:04;;;;;;;2.27;1.82;;;;;;;6.74;74.44;99036.27;2713483;87;21180;-62
2021/03/13 04:55:09;;;;;;;1.95;1.85;;;;;;;6.70;74.50;99036.53;2694233;88;21182;-63
2021/03/13 04:59:11;;;;;;;3.65;1.98;;;;;;;6.69;74.44;99044.11;2694015;88;21218;-62
2021/03/13 05:03:16;;;;;;;5.60;2.00;;;;;;;6.70;74.35;99044.94;2694021;88;21207;-63
2021/03/13 05:07:19;;;;;;;4.00;3.27;;;;;;;6.72;74.30;99045.63;2694195;88;21705;-63
2021/03/13 05:11:22;;;;;;;2.50;2.30;;;;;;;6.70;74.08;99045.78;2694180;88;21194;-63
2021/03/13 05:15:25;;;;;;;3.55;2.67;;;;;;;6.68;74.01;99046.41;2693985;88;21612;-64
2021/03/13 05:19:28;;;;;;;3.85;2.35;;;;;;;6.67;73.93;99050.48;2693786;88;21176;-63
2021/03/13 05:23:31;;;;;;;3.45;2.50;;;;;;;6.64;73.68;99070.57;2667799;89;21177;-63
2021/03/13 05:27:38;;;;;;;9.20;2.98;;;;;;;6.62;73.60;99066.72;2693872;88;21176;-62
2021/03/13 05:31:39;;;;;;;4.33;2.35;;;;;;;6.59;73.38;99076.23;2725674;87;21196;-64
2021/03/13 05:35:42;;;;;;;6.47;4.17;;;;;;;6.55;73.34;99071.69;2667899;89;21204;-62
2021/03/13 05:39:45;;;;;;;5.58;4.30;;;;;;;6.54;73.44;99071.84;2694211;88;21208;-64
2021/03/13 05:43:48;;;;;;;8.33;4.78;;;;;;;6.48;73.48;99071.01;2671194;88;21200;-63
2021/03/13 05:47:55;;;;;;;5.62;3.55;;;;;;;6.43;73.60;99074.88;2778586;84;21149;-63
2021/03/13 05:51:59;;;;;;;6.78;4.90;;;;;;;6.41;73.62;99066.75;2778720;85;21425;-63
2021/03/13 05:56:03;;;;;;;6.08;3.75;;;;;;;6.44;73.64;99062.53;2734581;87;21232;-63
2021/03/13 06:00:09;;;;;;;4.60;2.92;;;;;;;6.50;73.45;99066.46;2734538;87;21192;-64
2021/03/13 06:04:12;;;;;;;3.20;2.60;;;;;;;6.57;73.31;99068.93;2734815;87;21713;-63
2021/03/13 06:08:16;;;;;;;5.33;3.55;;;;;;;6.68;73.04;99060.94;2734573;87;21184;-63
2021/03/13 06:12:21;;;;;;;13.50;3.30;;;;;;;6.77;72.69;99053.17;2734713;87;21659;-63
2021/03/13 06:16:24;;;;;;;3.47;3.17;;;;;;;6.84;72.48;99055.63;2734634;87;21237;-64
2021/03/13 06:20:32;;;;;;;4.20;3.60;;;;;;;6.89;72.20;99049.48;2734433;87;21614;-64
2021/03/13 06:24:35;;;;;;;5.10;3.22;;;;;;;6.97;72.17;99049.65;2734904;87;21188;-63
2021/03/13 06:28:38;;;;;;;4.17;3.55;;;;;;;7.15;72.11;99055.63;2734577;87;21674;-64
2021/03/13 06:32:42;;;;;;;3.80;3.50;;;;;;;7.33;72.05;99059.78;2734784;87;21184;-63
2021/03/13 06:36:45;;;;;;;3.17;2.55;;;;;;;7.51;71.86;99058.66;2734595;87;21200;-63
2021/03/13 06:40:56;;;;;;;5.67;3.02;;;;;;;7.72;71.50;99053.74;2734350;87;30319;-64
2021/03/13 06:45:06;;;;;;;4.78;3.20;;;;;;;7.97;70.85;99055.48;2734487;86;21196;-65
2021/03/13 06:49:09;;;;;;;6.08;3.45;;;;;;;8.26;70.38;99047.52;2734663;87;21188;-63
2021/03/13 06:53:12;;;;;;;4.08;2.60;;;;;;;8.57;69.35;99041.22;2734594;87;21634;-64
2021/03/13 06:57:19;;;;;;;3.15;2.85;;;;;;;8.85;68.67;99041.30;2734642;87;21184;-63
2021/03/13 07:01:32;;;;;;;3.45;2.98;;;;;;;9.11;67.78;99045.41;2734755;87;21188;-65
2021/03/13 07:05:38;;;;;;;5.55;3.20;;;;;;;9.33;66.72;99048.65;2734435;87;21187;-61
2021/03/13 07:09:57;;;;;;;4.08;2.70;;;;;;;9.56;66.35;99050.91;2734502;87;21638;-62
2021/03/13 07:14:01;;;;;;;3.50;2.45;;;;;;;9.78;66.09;99059.43;2734832;87;21547;-63
2021/03/13 07:18:04;;;;;;;2.40;2.20;;;;;;;9.96;65.24;99063.41;2777859;85;21635;-62
2021/03/13 07:22:09;;;;;;;1.92;1.77;;;;;;;10.09;64.43;99061.69;2778084;85;21168;-60
2021/03/13 07:26:17;;;;;;;1.42;1.32;;;;;;;10.27;64.97;99060.36;2778251;85;21192;-61
2021/03/13 07:30:22;;;;;;;2.15;1.70;;;;;;;10.41;63.94;99057.16;2777786;85;22297;-60
2021/03/13 07:34:31;;;;;;;3.20;2.22;;;;;;;10.57;62.94;99054.28;2778038;85;21623;-62
2021/03/13 07:38:40;;;;;;;1.67;1.57;;;;;;;10.75;63.14;99054.73;2778248;85;21152;-62
2021/03/13 07:42:47;;;;;;;2.52;1.70;;;;;;;10.92;62.67;99047.17;2774921;85;21156;-63
2021/03/13 07:46:52;;;;;;;1.40;1.17;;;;;;;11.13;62.55;99051.27;2755442;85;21143;-65
2021/03/13 07:50:55;;;;;;;2.67;1.67;;;;;;;11.24;61.61;99053.65;2731340;86;21150;-61
2021/03/13 07:55:01;;;;;;;3.30;1.77;;;;;;;11.35;60.34;99041.02;2752527;86;21162;-62
2021/03/13 07:59:04;;;;;;;1.42;1.07;;;;;;;11.51;61.34;99041.59;2752376;86;21170;-63
2021/03/13 08:03:51;;;;;;;1.72;1.00;;;;;;;11.68;60.80;99029.13;2731042;86;21150;-64
2021/03/13 08:12:42;;;;;;;2.33;1.65;;;;;;;12.05;59.03;99027.87;3037321;77;27596;-63
2021/03/13 08:16:45;;;;;;;2.50;1.40;;;;;;;12.14;58.11;99027.38;2980391;78;21594;-62
2021/03/13 08:20:48;;;;;;;1.65;1.22;;;;;;;12.29;59.22;99020.86;2966045;80;21164;-63
2021/03/13 08:24:54;;;;;;;1.95;0.75;;;;;;;12.39;57.87;99004.20;2968675;78;21341;-64
2021/03/13 08:28:57;;;;;;;2.02;1.37;;;;;;;12.52;57.49;99000.15;3006353;78;21164;-61
2021/03/13 08:33:05;;;;;;;3.55;0.72;;;;;;;12.68;58.29;98994.78;3010964;78;21125;-62
2021/03/13 08:37:22;;;;;;;2.00;1.12;;;;;;;12.86;57.39;98993.72;2996811;79;21084;-62
2021/03/13 08:41:46;;;;;;;0.90;0.75;;;;;;;12.91;56.42;98986.02;2999637;79;21150;-62
2021/03/13 08:45:49;;;;;;;2.08;0.85;;;;;;;12.92;56.32;98987.69;2890210;82;21138;-63
2021/03/13 08:49:53;;;;;;;1.85;1.75;;;;;;;13.04;56.90;98978.79;2846393;82;21146;-63
2021/03/13 08:53:56;;;;;;;1.67;1.02;;;;;;;13.10;56.26;98970.59;2828789;84;21171;-63
2021/03/13 08:57:59;;;;;;;1.40;0.57;;;;;;;13.18;57.05;98971.91;2828768;84;21114;-64
2021/03/13 09:02:18;;;;;;;2.25;0.60;;;;;;;13.26;56.61;98965.66;2828482;84;21439;-63
2021/03/13 09:06:24;;;;;;;1.25;0.78;;;;;;;13.28;55.75;98955.14;2828726;84;21616;-62
2021/03/13 09:10:27;;;;;;;3.72;2.30;;;;;;;13.33;56.16;98959.12;2820168;84;21182;-62
2021/03/13 09:14:33;;;;;;;2.55;1.67;;;;;;;13.41;58.24;98957.23;2812203;83;21143;-64
2021/03/13 09:18:38;;;;;;;3.92;2.65;;;;;;;13.34;57.59;98953.61;2847107;82;21168;-62
2021/03/13 09:22:46;;;;;;;2.55;1.27;;;;;;;13.07;58.02;98954.45;2801708;84;21119;-63
2021/03/13 09:26:52;;;;;;;2.75;1.55;;;;;;;12.75;59.53;98952.73;2850389;83;21163;-64
2021/03/13 09:30:55;;;;;;;4.47;2.77;;;;;;;12.43;61.01;98950.84;2825132;82;21187;-61
2021/03/13 09:34:58;;;;;;;9.35;5.55;;;;;;;12.22;60.63;98944.71;2845905;83;21153;-64
2021/03/13 09:39:02;;;;;;;10.85;3.12;;;;;;;12.08;61.00;98941.39;2845883;83;21201;-63
2021/03/13 09:43:05;;;;;;;2.05;1.50;;;;;;;11.93;62.66;98927.89;2845656;83;21141;-63
2021/03/13 09:47:25;;;;;;;2.65;1.57;;;;;;;11.78;63.97;98918.42;2845893;83;21206;-63
2021/03/13 09:51:30;;;;;;;2.30;2.10;;;;;;;11.67;64.60;98911.60;2845569;83;21173;-61
2021/03/13 09:55:33;;;;;;;3.22;1.42;;;;;;;11.67;65.45;98908.94;2849187;82;21156;-64
2021/03/13 09:59:38;;;;;;;4.75;3.77;;;;;;;11.76;64.25;98900.45;2888495;82;21161;-62
2021/03/13 10:03:40;;;;;;;3.17;2.40;;;;;;;11.69;63.02;98894.95;2862554;82;21149;-62
2021/03/13 10:07:48;;;;;;;2.85;1.55;;;;;;;11.81;62.82;98885.63;2846101;83;21148;-64
2021/03/13 10:11:51;;;;;;;7.22;3.55;;;;;;;11.86;62.58;98894.42;2840217;83;21125;-64
2021/03/13 10:15:54;;;;;;;1.95;1.45;;;;;;;11.91;63.25;98884.60;2850241;83;21621;-63
2021/03/13 10:20:01;;;;;;;2.27;1.70;;;;;;;11.94;63.06;98874.94;2850222;83;21517;-62
2021/03/13 10:24:05;;;;;;;1.92;1.40;;;;;;;11.91;62.98;98881.94;2847360;83;21609;-61
2021/03/13 10:28:12;;;;;;;3.80;1.95;;;;;;;11.91;63.46;98862.80;2850130;83;21645;-63
2021/03/13 10:32:15;;;;;;;2.15;1.27;;;;;;;11.92;63.64;98863.61;2850119;83;21516;-64
2021/03/13 10:36:22;;;;;;;2.80;2.15;;;;;;;11.92;63.33;98854.28;2781251;84;21131;-63
2021/03/13 10:40:45;;;;;;;2.27;2.08;;;;;;;11.94;63.43;98845.62;2861303;81;21106;-63
2021/03/13 10:44:48;;;;;;;1.57;1.12;;;;;;;11.93;63.11;98846.62;2859451;83;21161;-64
2021/03/13 10:49:06;;;;;;;1.80;1.65;;;;;;;11.82;63.22;98826.50;2850580;82;21188;-62
2021/03/13 10:53:30;;;;;;;4.15;2.47;;;;;;;11.75;63.58;98837.00;2947172;80;21145;-65
2021/03/13 10:57:35;;;;;;;1.95;1.40;;;;;;;11.69;64.22;98819.88;2944561;80;21153;-64
2021/03/13 11:01:44;;;;;;;2.90;2.27;;;;;;;11.72;64.31;98817.36;2874627;82;21499;-64
2021/03/13 11:05:51;;;;;;;4.58;2.20;;;;;;;11.75;64.72;98794.38;2946851;80;21615;-62
2021/03/13 11:09:53;;;;;;;;;;;;;;;11.80;63.89;98790.72;2848804;82;21193;-64
2021/03/13 11:13:56;;;;;;;3.87;3.27;;;;;;;11.90;64.13;98784.35;2867370;83;20183;-62
2021/03/13 11:17:59;;;;;;;4.78;2.55;;;;;;;12.00;64.11;98786.34;2819825;82;21161;-62
2021/03/13 11:22:09;;;;;;;2.90;1.87;;;;;;;12.13;64.06;98789.29;2867492;83;21586;-63
2021/03/13 11:26:11;;;;;;;2.52;2.20;;;;;;;12.21;63.69;98787.62;2819454;83;21730;-63
2021/03/13 11:30:16;;;;;;;5.35;2.90;;;;;;;12.23;63.93;98772.28;2867732;83;21494;-63
2021/03/13 11:34:18;;;;;;;2.77;1.87;;;;;;;12.32;64.12;98766.41;2840707;81;21124;-63
2021/03/13 11:38:21;;;;;;;1.98;1.77;;;;;;;12.32;63.37;98763.73;2856217;81;21173;-65
2021/03/13 11:42:29;;;;;;;2.05;1.62;;;;;;;12.26;63.28;98763.41;2865060;83;21189;-67
2021/03/13 11:46:32;;;;;;;2.52;1.70;;;;;;;12.25;64.29;98751.60;2856127;83;21153;-66
2021/03/13 11:50:38;;;;;;;3.58;2.33;;;;;;;12.21;63.68;98747.63;2865654;82;21162;-65
2021/03/13 11:54:41;;;;;;;2.65;1.92;;;;;;;12.18;63.89;98730.14;2856211;83;21154;-64
2021/03/13 11:58:44;;;;;;;4.92;2.90;;;;;;;12.24;64.14;98717.95;2869916;82;21433;-65
2021/03/13 12:02:49;;;;;;;5.85;3.12;;;;;;;12.36;64.16;98716.53;2870205;82;21160;-65
2021/03/13 12:06:52;;;;;;;4.78;2.10;;;;;;;12.43;63.23;98693.99;2920849;81;21140;-65
2021/03/13 12:10:55;;;;;;;14.20;2.10;;;;;;;12.45;63.67;98699.97;2920838;81;21146;-65
2021/03/13 12:14:58;;;;;;;3.58;2.27;;;;;;;12.46;64.12;98690.97;2920937;81;21158;-68
2021/03/13 12:19:01;;;;;;;3.62;2.30;;;;;;;12.42;63.59;98689.17;2921153;81;21457;-69
2021/03/13 12:23:05;;;;;;;3.87;2.55;;;;;;;12.42;63.73;98688.34;2921142;81;21158;-66
2021/03/13 12:27:09;;;;;;;3.12;1.95;;;;;;;12.49;63.97;98677.30;2921306;81;21143;-64
2021/03/13 12:31:12;;;;;;;1.45;1.35;;;;;;;12.54;63.93;98663.41;2912129;81;21183;-64
2021/03/13 12:35:16;;;;;;;4.28;3.25;;;;;;;12.59;63.39;98654.39;2888470;82;21592;-64
2021/03/13 12:39:20;;;;;;;3.62;2.35;;;;;;;12.64;63.35;98645.34;2917824;81;21164;-63
2021/03/13 12:43:24;;;;;;;6.87;3.10;;;;;;;12.64;63.33;98641.83;2939019;80;21149;-64
2021/03/13 12:47:26;;;;;;;3.02;2.65;;;;;;;12.63;62.96;98629.50;2867684;82;21160;-65
2021/03/13 12:51:30;;;;;;;3.35;2.25;;;;;;;12.66;64.02;98628.65;2939089;80;21118;-64
2021/03/13 12:55:33;;;;;;;3.98;2.62;;;;;;;12.67;63.39;98618.79;2867574;83;21161;-64
2021/03/13 12:59:36;;;;;;;2.70;2.05;;;;;;;12.65;63.62;98617.66;2939543;80;21198;-64
2021/03/13 13:03:39;;;;;;;5.78;3.15;;;;;;;12.67;64.16;98612.13;2867598;83;21185;-62
2021/03/13 13:07:46;;;;;;;3.20;1.45;;;;;;;12.65;63.94;98617.66;2882380;80;21157;-64
2021/03/13 13:11:48;;;;;;;4.55;3.50;;;;;;;12.58;64.20;98611.39;2897372;81;21145;-63
2021/03/13 13:15:52;;;;;;;4.17;2.15;;;;;;;12.52;64.08;98605.42;2875925;81;21139;-64
2021/03/13 13:19:55;;;;;;;4.20;1.20;;;;;;;12.43;64.68;98596.17;2857551;83;22288;-63
2021/03/13 13:23:59;;;;;;;2.27;1.42;;;;;;;12.37;64.99;98606.20;2807132;84;21135;-64
2021/03/13 13:28:04;;;;;;;3.75;2.55;;;;;;;12.33;64.91;98606.23;2857575;83;21567;-63
2021/03/13 13:32:08;;;;;;;9.38;2.27;;;;;;;12.25;64.56;98596.98;2806657;84;21174;-63
2021/03/13 13:36:11;;;;;;;5.62;2.87;;;;;;;12.14;65.18;98599.05;2857342;83;21233;-61
2021/03/13 13:40:17;;;;;;;3.83;1.60;;;;;;;12.16;64.97;98599.37;2892418;81;21220;-63
2021/03/13 13:44:22;;;;;;;3.02;2.33;;;;;;;12.10;65.25;98583.09;2907063;81;21158;-65
2021/03/13 13:48:26;;;;;;;2.90;2.00;;;;;;;12.00;66.43;98579.30;2907148;81;21172;-63
2021/03/13 13:52:29;;;;;;;4.33;3.60;;;;;;;11.96;66.36;98577.15;2906894;81;21122;-61
2021/03/13 13:56:32;;;;;;;4.78;3.17;;;;;;;11.93;66.38;98568.18;2906964;81;21139;-62
2021/03/13 14:00:35;;;;;;;24.87;22.62;;;;;;;11.88;66.18;98555.91;2907030;81;21671;-63
2021/03/13 14:04:39;;;;;;;3.35;2.92;;;;;;;11.81;66.29;98537.97;2907109;81;21166;-62
2021/03/13 14:08:44;;;;;;;5.15;4.20;;;;;;;11.81;66.06;98527.31;2907106;81;21178;-62
2021/03/13 14:12:48;;;;;;;8.13;3.98;;;;;;;11.87;65.74;98515.09;2906917;81;21181;-62
2021/03/13 14:16:52;;;;;;;4.95;3.17;;;;;;;11.95;65.08;98516.38;2907159;81;21159;-63
2021/03/13 14:20:57;;;;;;;2.72;1.90;;;;;;;11.99;65.41;98503.55;2907053;81;21600;-63
2021/03/13 14:25:02;;;;;;;1.70;1.60;;;;;;;12.02;65.17;98479.23;2907027;81;21171;-62
2021/03/13 14:29:05;;;;;;;1.77;1.47;;;;;;;12.05;64.67;98469.53;2906840;81;22321;-63
2021/03/13 14:33:08;;;;;;;4.20;2.67;;;;;;;12.08;64.72;98473.17;2907390;81;21132;-63
2021/03/13 14:37:12;;;;;;;2.70;1.62;;;;;;;12.13;64.39;98475.30;2906926;81;21194;-64
2021/03/13 14:41:17;;;;;;;4.35;2.05;;;;;;;12.11;64.20;98474.66;2907036;81;21139;-62
2021/03/13 14:45:21;;;;;;;3.12;1.72;;;;;;;12.16;64.27;98470.94;2906795;81;21636;-62
2021/03/13 14:49:26;;;;;;;2.90;2.08;;;;;;;12.07;63.69;98456.02;2905946;81;21201;-62
2021/03/13 14:53:29;;;;;;;4.92;1.80;;;;;;;12.07;64.15;98450.20;2907249;81;21743;-63
2021/03/13 14:57:35;;;;;;;2.50;1.80;;;;;;;11.97;63.92;98449.58;2906714;81;21155;-63
2021/03/13 15:01:39;;;;;;;;;;;;;;;11.94;63.98;98451.27;2909695;81;21143;-62
2021/03/13 15:05:42;;;;;;;1.85;1.70;;;;;;;11.84;63.60;98428.88;2907119;81;20141;-63
2021/03/13 15:09:46;;;;;;;5.10;1.82;;;;;;;11.85;64.45;98447.84;2910613;81;21625;-62
2021/03/13 15:13:51;;;;;;;4.72;3.00;;;;;;;11.82;64.78;98434.40;2824741;81;21159;-63
2021/03/13 15:17:53;;;;;;;1.98;1.17;;;;;;;11.80;64.46;98438.23;2805092;84;21674;-62
2021/03/13 15:21:57;;;;;;;3.58;2.45;;;;;;;11.76;64.84;98440.42;2785277;85;21626;-62
2021/03/13 15:26:02;;;;;;;4.15;3.27;;;;;;;11.72;64.87;98443.12;2808488;84;21531;-63
2021/03/13 15:30:08;;;;;;;5.17;3.33;;;;;;;11.65;65.16;98443.52;2832460;84;21164;-62
2021/03/13 15:34:10;;;;;;;3.00;1.92;;;;;;;11.60;64.84;98441.39;2833001;84;21137;-63
2021/03/13 15:38:20;;;;;;;5.45;2.40;;;;;;;11.57;65.37;98430.58;2832831;84;21156;-66
2021/03/13 15:42:19;;;;;;;3.80;2.70;;;;;;;11.48;65.79;98432.98;2832608;84;21161;-64
2021/03/13 15:46:22;;;;;;;5.67;3.72;;;;;;;11.40;65.58;98434.39;2832835;84;21224;-64
2021/03/13 15:50:27;;;;;;;3.92;1.50;;;;;;;11.35;65.83;98438.91;2832821;84;21156;-65
2021/03/13 15:54:32;;;;;;;4.37;2.77;;;;;;;11.26;65.78;98434.12;2832899;84;21188;-64
2021/03/13 15:58:37;;;;;;;6.00;2.30;;;;;;;11.23;66.26;98411.87;2833047;84;21635;-63
2021/03/13 16:02:41;;;;;;;3.35;1.55;;;;;;;11.20;66.12;98404.23;2827473;84;21168;-66
2021/03/13 16:06:44;;;;;;;1.65;0.85;;;;;;;11.18;66.00;98397.42;2785161;85;21645;-65
2021/03/13 16:10:47;;;;;;;3.72;2.72;;;;;;;11.23;65.91;98387.07;2785724;82;21204;-65
2021/03/13 16:14:50;;;;;;;5.10;2.67;;;;;;;11.29;65.60;98379.21;2850825;83;21153;-64
2021/03/13 16:18:54;;;;;;;3.85;2.37;;;;;;;11.37;65.50;98372.16;2850666;83;21185;-66
2021/03/13 16:22:58;;;;;;;4.70;2.12;;;;;;;11.37;65.36;98369.01;2850704;83;21125;-65
2021/03/13 16:27:02;;;;;;;4.12;2.27;;;;;;;11.31;65.16;98365.73;2851063;83;21168;-64
2021/03/13 16:31:06;;;;;;;5.58;2.75;;;;;;;11.19;65.37;98376.45;2868612;80;21623;-64
2021/03/13 16:35:10;;;;;;;4.03;2.47;;;;;;;11.00;65.79;98367.44;2857568;82;21630;-63
2021/03/13 16:39:13;;;;;;;4.17;3.22;;;;;;;10.89;66.18;98378.47;2865277;82;21619;-65
2021/03/13 16:43:16;;;;;;;6.97;2.75;;;;;;;10.78;66.54;98369.54;2885630;82;21105;-64
2021/03/13 16:47:21;;;;;;;7.20;4.22;;;;;;;10.73;66.64;98361.27;2868434;82;21172;-66
2021/03/13 16:51:25;;;;;;;5.67;3.90;;;;;;;10.71;66.67;98347.64;2871436;82;21607;-64
2021/03/13 16:55:28;;;;;;;6.33;3.87;;;;;;;10.70;66.66;98335.34;2870566;82;21106;-67
2021/03/13 16:59:31;;;;;;;8.10;6.05;;;;;;;10.70;66.06;98326.53;2876197;82;21583;-65
2021/03/13 17:03:36;;;;;;;4.67;3.00;;;;;;;10.70;65.73;98335.34;2865622;82;22239;-64
2021/03/13 17:07:39;;;;;;;13.20;3.60;;;;;;;10.71;65.45;98324.23;2873502;82;21132;-65
2021/03/13 17:11:42;;;;;;;7.65;3.80;;;;;;;10.67;65.38;98320.23;2870290;81;21160;-67
2021/03/13 17:15:47;;;;;;;4.08;3.67;;;;;;;10.70;65.09;98330.52;2885383;80;21149;-65
2021/03/13 17:19:50;;;;;;;5.28;2.85;;;;;;;10.71;65.02;98344.98;2885074;80;21202;-65
2021/03/13 17:23:55;;;;;;;3.47;3.17;;;;;;;10.76;64.77;98354.27;2883845;81;21135;-64
2021/03/13 17:27:58;;;;;;;4.53;2.80;;;;;;;10.85;64.93;98402.44;2883073;81;21119;-65
2021/03/13 17:32:03;;;;;;;3.10;2.47;;;;;;;10.89;66.09;98429.01;2878623;81;21194;-65
2021/03/13 17:36:07;;;;;;;3.52;2.75;;;;;;;10.91;65.87;98444.80;2875949;81;21170;-64
2021/03/13 17:40:13;;;;;;;3.55;2.35;;;;;;;10.97;65.64;98430.28;2882446;81;21156;-64
2021/03/13 17:44:16;;;;;;;2.42;1.75;;;;;;;11.05;65.28;98390.02;2851240;83;21131;-64
2021/03/13 17:48:19;;;;;;;1.17;1.12;;;;;;;11.09;64.26;98393.98;2857601;80;21125;-66
2021/03/13 17:52:23;;;;;;;1.77;0.78;;;;;;;11.11;63.03;98411.44;2838499;83;21154;-65
2021/03/13 17:56:27;;;;;;;1.15;0.75;;;;;;;11.13;64.31;98419.23;2879654;81;21125;-64
2021/03/13 18:00:30;;;;;;;3.70;1.82;;;;;;;11.02;65.55;98401.02;2870652;81;21178;-63
2021/03/13 18:04:33;;;;;;;5.92;1.60;;;;;;;10.90;67.06;98410.71;2819653;83;21139;-64
2021/03/13 18:08:37;;;;;;;9.70;4.20;;;;;;;10.75;67.64;98410.63;2846760;83;21604;-65
2021/03/13 18:12:40;;;;;;;7.15;5.08;;;;;;;10.63;67.70;98413.33;2831750;83;21146;-63
2021/03/13 18:16:42;;;;;;;3.33;2.08;;;;;;;10.55;68.10;98413.70;2844940;82;21170;-64
2021/03/13 18:20:47;;;;;;;2.12;1.52;;;;;;;10.51;68.44;98404.90;2840143;82;21146;-64
2021/03/13 18:24:53;;;;;;;1.47;0.90;;;;;;;10.50;67.09;98408.05;2838778;82;21636;-62
2021/03/13 18:28:56;;;;;;;2.42;1.12;;;;;;;10.65;65.92;98420.14;2822559;84;21181;-62
2021/03/13 18:32:59;;;;;;;3.87;1.82;;;;;;;10.65;65.92;98420.14;2876061;81;21948;-63
2021/03/13 18:37:04;;;;;;;2.72;1.00;;;;;;;10.67;65.06;98435.42;2899829;81;21586;-64
2021/03/13 18:41:08;;;;;;;1.05;0.57;;;;;;;10.70;65.08;98424.43;2870939;82;22343;-63
2021/03/13 18:45:14;;;;;;;2.42;0.98;;;;;;;10.74;63.51;98430.73;2868173;82;21178;-63
2021/03/13 18:49:17;;;;;;;2.90;1.30;;;;;;;10.75;62.79;98422.59;2871198;82;21949;-65
2021/03/13 18:53:23;;;;;;;2.85;1.95;;;;;;;10.75;62.10;98423.08;2871191;82;21142;-63
2021/03/13 18:57:29;;;;;;;5.40;2.40;;;;;;;10.75;61.70;98444.36;2871419;82;21532;-63
2021/03/13 19:01:33;;;;;;;1.77;1.20;;;;;;;10.75;61.96;98466.47;2871032;82;21140;-64
2021/03/13 19:05:38;;;;;;;1.55;1.02;;;;;;;10.69;62.16;98467.98;2867048;82;21170;-64
2021/03/13 19:09:42;;;;;;;2.37;1.82;;;;;;;10.65;62.00;98482.63;2870993;82;21236;-66
2021/03/13 19:13:47;;;;;;;1.12;0.95;;;;;;;10.62;62.05;98490.95;2870563;82;21181;-64
2021/03/13 19:17:50;;;;;;;2.10;1.45;;;;;;;10.61;62.10;98480.47;2823547;82;21222;-65
2021/03/13 19:21:53;;;;;;;2.10;1.02;;;;;;;10.49;62.13;98486.13;2813744;83;21168;-65
2021/03/13 19:25:56;;;;;;;1.50;1.02;;;;;;;10.46;61.64;98488.33;2835115;83;21166;-63
2021/03/13 19:30:00;;;;;;;1.80;1.57;;;;;;;10.35;61.50;98489.48;2861920;83;21182;-67
2021/03/13 19:34:03;;;;;;;4.33;2.60;;;;;;;10.25;61.72;98495.78;2887588;81;21198;-66